createdAt,value
2023-01-09T00:00:51.895Z,99.99
2023-01-09T00:01:51.815Z,99.99
2023-01-09T00:03:45.277Z,99.99
2023-01-09T00:04:44.988Z,99.99
2023-01-09T00:06:38.151Z,99.99
2023-01-09T00:07:38.074Z,99.99
2023-01-09T00:09:30.937Z,99.99
2023-01-09T00:10:30.881Z,99.99
2023-01-09T00:12:23.723Z,99.99
2023-01-09T00:13:23.660Z,99.99
2023-01-09T00:15:16.513Z,99.99
2023-01-09T00:16:16.489Z,99.99
2023-01-09T00:18:09.303Z,99.99
2023-01-09T00:19:09.246Z,99.99
2023-01-09T00:21:02.103Z,99.99
2023-01-09T00:22:02.040Z,99.99
2023-01-09T00:23:54.887Z,99.99
2023-01-09T00:24:54.815Z,99.99
2023-01-09T00:26:47.671Z,99.99
2023-01-09T00:27:47.693Z,99.99
2023-01-09T00:29:40.506Z,99.99
2023-01-09T00:30:40.413Z,99.99
2023-01-09T00:32:33.239Z,99.99
2023-01-09T00:33:33.178Z,99.99
2023-01-09T00:35:26.033Z,99.99
2023-01-09T00:36:25.972Z,99.99
2023-01-09T00:38:18.827Z,99.99
2023-01-09T00:39:18.768Z,99.99
2023-01-09T00:41:11.613Z,99.99
2023-01-09T00:42:11.555Z,99.99
2023-01-09T00:44:04.432Z,99.99
2023-01-09T00:45:04.339Z,99.99
2023-01-09T00:46:57.185Z,99.99
2023-01-09T00:47:57.119Z,99.99
2023-01-09T00:49:49.984Z,99.99
2023-01-09T00:50:49.926Z,99.99
2023-01-09T00:52:42.765Z,99.99
2023-01-09T00:53:42.707Z,99.99
2023-01-09T00:55:35.561Z,99.99
2023-01-09T00:56:35.495Z,99.99
2023-01-09T00:58:28.359Z,99.99
2023-01-09T00:59:29.874Z,99.99
2023-01-09T01:01:21.231Z,99.99
2023-01-09T01:02:21.268Z,99.99
2023-01-09T01:04:13.924Z,99.99
2023-01-09T01:05:13.852Z,99.99
2023-01-09T01:07:06.713Z,99.99
2023-01-09T01:08:06.641Z,99.99
2023-01-09T01:09:59.540Z,99.99
2023-01-09T01:10:59.431Z,99.99
2023-01-09T01:12:52.291Z,99.99
2023-01-09T01:13:52.233Z,99.99
2023-01-09T01:15:45.075Z,99.99
2023-01-09T01:16:45.113Z,99.99
2023-01-09T01:18:37.868Z,99.99
2023-01-09T01:19:37.798Z,99.99
2023-01-09T01:21:30.663Z,99.99
2023-01-09T01:22:30.589Z,99.99
2023-01-09T01:24:23.451Z,99.99
2023-01-09T01:25:23.379Z,99.99
2023-01-09T01:27:16.235Z,99.99
2023-01-09T01:28:16.166Z,99.99
2023-01-09T01:30:09.617Z,99.99
2023-01-09T01:31:09.261Z,99.99
2023-01-09T01:33:01.997Z,99.99
2023-01-09T01:34:01.947Z,99.99
2023-01-09T01:35:54.789Z,99.99
2023-01-09T01:36:54.733Z,99.99
2023-01-09T01:38:48.177Z,99.99
2023-01-09T01:39:47.715Z,99.99
2023-01-09T01:41:40.567Z,99.99
2023-01-09T01:42:40.491Z,99.99
2023-01-09T01:44:33.358Z,99.99
2023-01-09T01:45:33.301Z,99.99
2023-01-09T01:47:26.144Z,99.99
2023-01-09T01:48:26.074Z,99.99
2023-01-09T01:50:18.934Z,99.99
2023-01-09T01:51:18.871Z,99.99
2023-01-09T01:53:11.720Z,99.99
2023-01-09T01:54:11.658Z,99.99
2023-01-09T01:56:04.511Z,99.99
2023-01-09T01:57:04.442Z,99.99
2023-01-09T01:58:57.303Z,99.99
2023-01-09T01:59:57.241Z,99.99
2023-01-09T02:01:50.198Z,99.99
2023-01-09T02:02:50.093Z,99.99
2023-01-09T02:04:42.880Z,99.99
2023-01-09T02:05:42.815Z,99.99
2023-01-09T02:07:35.665Z,99.99
2023-01-09T02:08:35.697Z,99.99
2023-01-09T02:10:28.460Z,99.99
2023-01-09T02:11:28.390Z,99.99
2023-01-09T02:13:21.253Z,99.99
2023-01-09T02:14:21.186Z,99.99
2023-01-09T02:16:14.052Z,99.99
2023-01-09T02:17:13.970Z,99.99
2023-01-09T02:19:06.829Z,99.99
2023-01-09T02:20:06.747Z,99.99
2023-01-09T02:21:59.602Z,99.99
2023-01-09T02:22:59.539Z,99.99
2023-01-09T02:24:52.396Z,99.99
2023-01-09T02:25:52.325Z,99.99
2023-01-09T02:27:45.180Z,99.99
2023-01-09T02:28:45.156Z,99.99
2023-01-09T02:30:37.983Z,99.99
2023-01-09T02:31:37.924Z,99.99
2023-01-09T02:33:30.782Z,99.99
2023-01-09T02:34:30.700Z,99.99
2023-01-09T02:36:24.062Z,99.99
2023-01-09T02:37:23.993Z,99.99
2023-01-09T02:39:16.851Z,99.99
2023-01-09T02:40:16.788Z,99.99
2023-01-09T02:42:09.634Z,99.99
2023-01-09T02:43:09.568Z,99.99
2023-01-09T02:45:02.956Z,99.99
2023-01-09T02:46:02.413Z,99.99
2023-01-09T02:47:55.214Z,99.99
2023-01-09T02:48:55.164Z,99.99
2023-01-09T02:50:48.005Z,99.99
2023-01-09T02:51:47.937Z,99.99
2023-01-09T02:53:40.798Z,99.99
2023-01-09T02:54:40.728Z,99.99
2023-01-09T02:56:33.581Z,99.99
2023-01-09T02:57:33.524Z,99.99
2023-01-09T02:59:26.372Z,99.99
2023-01-09T03:00:26.312Z,99.99
2023-01-09T03:02:19.166Z,99.99
2023-01-09T03:03:19.098Z,99.99
2023-01-09T03:05:11.969Z,99.99
2023-01-09T03:06:11.905Z,99.99
2023-01-09T03:08:04.750Z,99.99
2023-01-09T03:09:04.685Z,99.99
2023-01-09T03:10:57.537Z,99.99
2023-01-09T03:11:57.471Z,99.99
2023-01-09T03:13:50.331Z,99.99
2023-01-09T03:14:50.272Z,99.99
2023-01-09T03:16:43.168Z,99.99
2023-01-09T03:17:43.050Z,99.99
2023-01-09T03:19:35.924Z,99.99
2023-01-09T03:20:35.869Z,99.99
2023-01-09T03:22:28.696Z,99.99
2023-01-09T03:23:28.622Z,99.99
2023-01-09T03:25:21.487Z,99.99
2023-01-09T03:26:21.417Z,99.99
2023-01-09T03:28:14.263Z,99.99
2023-01-09T03:29:14.247Z,99.99
2023-01-09T03:31:07.111Z,99.99
2023-01-09T03:32:07.005Z,99.99
2023-01-09T03:33:59.845Z,99.99
2023-01-09T03:34:59.783Z,99.99
2023-01-09T03:36:52.648Z,99.99
2023-01-09T03:37:52.579Z,99.99
2023-01-09T03:39:45.487Z,99.99
2023-01-09T03:40:45.360Z,99.99
2023-01-09T03:42:38.217Z,99.99
2023-01-09T03:43:38.143Z,99.99
2023-01-09T03:45:31.052Z,99.99
2023-01-09T03:46:30.933Z,99.99
2023-01-09T03:48:23.783Z,99.99
2023-01-09T03:49:23.723Z,99.99
2023-01-09T03:51:16.584Z,99.99
2023-01-09T03:52:16.551Z,99.99
2023-01-09T03:54:09.388Z,99.99
2023-01-09T03:55:09.308Z,99.99
2023-01-09T03:57:02.154Z,99.99
2023-01-09T03:58:02.103Z,99.99
2023-01-09T03:59:54.952Z,99.99
2023-01-09T04:00:54.951Z,99.99
2023-01-09T04:02:47.737Z,99.99
2023-01-09T04:03:47.851Z,99.99
2023-01-09T04:05:40.529Z,99.99
2023-01-09T04:06:40.462Z,99.99
2023-01-09T04:08:33.334Z,99.99
2023-01-09T04:09:33.251Z,99.99
2023-01-09T04:11:26.101Z,99.99
2023-01-09T04:12:26.030Z,99.99
2023-01-09T04:14:18.896Z,99.99
2023-01-09T04:15:18.822Z,99.99
2023-01-09T04:17:11.681Z,99.99
2023-01-09T04:18:11.743Z,99.99
2023-01-09T04:20:04.468Z,99.99
2023-01-09T04:21:04.402Z,99.99
2023-01-09T04:22:57.259Z,99.99
2023-01-09T04:23:57.191Z,99.99
2023-01-09T04:25:50.056Z,99.99
2023-01-09T04:26:49.973Z,99.99
2023-01-09T04:28:42.838Z,99.99
2023-01-09T04:29:42.779Z,99.99
2023-01-09T04:31:35.736Z,99.99
2023-01-09T04:32:35.551Z,99.99
2023-01-09T04:34:28.418Z,99.99
2023-01-09T04:35:28.344Z,99.99
2023-01-09T04:37:21.199Z,99.99
2023-01-09T04:38:21.133Z,99.99
2023-01-09T04:40:14.028Z,99.99
2023-01-09T04:41:13.921Z,99.99
2023-01-09T04:43:06.775Z,99.99
2023-01-09T04:44:06.709Z,99.99
2023-01-09T04:45:59.634Z,99.99
2023-01-09T04:46:59.500Z,99.99
2023-01-09T04:48:52.360Z,99.99
2023-01-09T04:49:52.293Z,99.99
2023-01-09T04:51:45.732Z,99.99
2023-01-09T04:52:45.474Z,99.99
2023-01-09T04:54:38.129Z,99.99
2023-01-09T04:55:38.080Z,99.99
2023-01-09T04:57:30.912Z,99.99
2023-01-09T04:58:30.851Z,99.99
2023-01-09T05:00:23.714Z,99.99
2023-01-09T05:01:23.779Z,99.99
2023-01-09T05:03:16.496Z,99.99
2023-01-09T05:04:16.474Z,99.99
2023-01-09T05:06:09.275Z,99.99
2023-01-09T05:07:09.222Z,99.99
2023-01-09T05:09:02.085Z,99.99
2023-01-09T05:10:01.998Z,99.99
2023-01-09T05:11:54.859Z,99.99
2023-01-09T05:12:54.790Z,99.99
2023-01-09T05:14:47.640Z,99.99
2023-01-09T05:15:47.603Z,99.99
2023-01-09T05:17:40.427Z,99.99
2023-01-09T05:18:40.360Z,99.99
2023-01-09T05:20:33.227Z,99.99
2023-01-09T05:21:33.151Z,99.99
2023-01-09T05:23:27.505Z,99.99
2023-01-09T05:24:27.450Z,99.99
2023-01-09T05:26:20.295Z,99.99
2023-01-09T05:27:20.234Z,99.99
2023-01-09T05:29:13.085Z,99.99
2023-01-09T05:30:13.956Z,99.99
2023-01-09T05:32:05.867Z,99.99
2023-01-09T05:33:05.812Z,99.99
2023-01-09T05:34:59.261Z,99.99
2023-01-09T05:35:58.780Z,99.99
2023-01-09T05:37:51.629Z,99.99
2023-01-09T05:38:51.569Z,99.99
2023-01-09T05:40:44.422Z,99.99
2023-01-09T05:41:44.363Z,99.99
2023-01-09T05:43:37.230Z,99.99
2023-01-09T05:44:37.150Z,99.99
2023-01-09T05:46:30.002Z,99.99
2023-01-09T05:47:29.935Z,99.99
2023-01-09T05:49:22.802Z,99.99
2023-01-09T05:50:22.726Z,99.99
2023-01-09T05:52:14.618Z,99.99
2023-01-09T05:53:14.567Z,99.99
2023-01-09T05:55:07.424Z,99.99
2023-01-09T05:56:07.349Z,99.99
2023-01-09T05:58:00.206Z,99.99
2023-01-09T05:59:00.145Z,99.99
2023-01-09T06:00:53.012Z,99.99
2023-01-09T06:01:52.963Z,99.99
2023-01-09T06:03:45.788Z,99.99
2023-01-09T06:04:45.744Z,99.99
2023-01-09T06:06:38.569Z,99.99
2023-01-09T06:07:38.502Z,99.99
2023-01-09T06:09:31.357Z,99.99
2023-01-09T06:10:31.315Z,99.99
2023-01-09T06:12:24.150Z,99.99
2023-01-09T06:13:24.081Z,99.99
2023-01-09T06:15:16.971Z,99.99
2023-01-09T06:16:16.890Z,99.99
2023-01-09T06:18:09.727Z,99.99
2023-01-09T06:19:09.664Z,99.99
2023-01-09T06:21:02.515Z,99.99
2023-01-09T06:22:02.454Z,99.99
2023-01-09T06:23:55.298Z,99.99
2023-01-09T06:24:55.231Z,99.99
2023-01-09T06:26:48.088Z,99.99
2023-01-09T06:27:48.018Z,99.99
2023-01-09T06:29:40.882Z,99.99
2023-01-09T06:30:40.812Z,99.99
2023-01-09T06:32:33.679Z,99.99
2023-01-09T06:33:33.594Z,99.99
2023-01-09T06:35:26.451Z,99.99
2023-01-09T06:36:26.397Z,99.99
2023-01-09T06:38:19.254Z,99.99
2023-01-09T06:39:19.174Z,99.99
2023-01-09T06:41:12.026Z,99.99
2023-01-09T06:42:11.972Z,99.99
2023-01-09T06:44:04.823Z,99.99
2023-01-09T06:45:04.752Z,99.99
2023-01-09T06:46:57.784Z,99.99
2023-01-09T06:47:57.543Z,99.99
2023-01-09T06:49:50.398Z,99.99
2023-01-09T06:50:50.327Z,99.99
2023-01-09T06:52:43.176Z,99.99
2023-01-09T06:53:43.114Z,99.99
2023-01-09T06:55:35.981Z,99.99
2023-01-09T06:56:35.910Z,99.99
2023-01-09T06:58:28.761Z,99.99
2023-01-09T06:59:28.692Z,99.99
2023-01-09T07:01:21.687Z,99.99
2023-01-09T07:02:21.499Z,99.99
2023-01-09T07:04:14.356Z,99.99
2023-01-09T07:05:14.272Z,99.99
2023-01-09T07:07:07.126Z,99.99
2023-01-09T07:08:07.056Z,99.99
2023-01-09T07:09:59.919Z,99.99
2023-01-09T07:10:59.843Z,99.99
2023-01-09T07:12:52.707Z,99.99
2023-01-09T07:13:52.632Z,99.99
2023-01-09T07:15:45.604Z,99.99
2023-01-09T07:16:45.434Z,99.99
2023-01-09T07:18:38.276Z,99.99
2023-01-09T07:19:38.205Z,99.99
2023-01-09T07:21:32.780Z,99.99
2023-01-09T07:22:30.985Z,99.99
2023-01-09T07:24:23.844Z,99.99
2023-01-09T07:25:23.775Z,99.99
2023-01-09T07:27:16.632Z,99.99
2023-01-09T07:28:16.565Z,99.99
2023-01-09T07:30:09.422Z,99.99
2023-01-09T07:31:09.364Z,99.99
2023-01-09T07:33:04.029Z,99.99
2023-01-09T07:34:02.143Z,99.99
2023-01-09T07:35:55.585Z,99.99
2023-01-09T07:36:55.119Z,99.99
2023-01-09T07:38:47.985Z,99.99
2023-01-09T07:39:47.912Z,99.99
2023-01-09T07:41:40.773Z,99.99
2023-01-09T07:42:40.692Z,99.99
2023-01-09T07:44:33.551Z,99.99
2023-01-09T07:45:33.485Z,99.99
2023-01-09T07:47:26.337Z,99.99
2023-01-09T07:48:26.276Z,99.99
2023-01-09T07:50:19.142Z,99.99
2023-01-09T07:51:19.059Z,99.99
2023-01-09T07:53:11.914Z,99.99
2023-01-09T07:54:11.853Z,99.99
2023-01-09T07:56:04.703Z,99.99
2023-01-09T07:57:04.640Z,99.99
2023-01-09T07:58:57.494Z,99.99
2023-01-09T07:59:57.427Z,99.99
2023-01-09T08:01:50.412Z,99.99
2023-01-09T08:02:50.312Z,99.99
2023-01-09T08:04:43.080Z,99.99
2023-01-09T08:05:43.017Z,99.99
2023-01-09T08:07:35.872Z,99.99
2023-01-09T08:08:35.795Z,99.99
2023-01-09T08:10:28.673Z,99.99
2023-01-09T08:11:28.594Z,99.99
2023-01-09T08:13:21.442Z,99.99
2023-01-09T08:14:21.370Z,99.99
2023-01-09T08:16:14.324Z,99.99
2023-01-09T08:17:14.157Z,99.99
2023-01-09T08:19:07.011Z,99.99
2023-01-09T08:20:06.946Z,99.99
2023-01-09T08:21:59.809Z,99.99
2023-01-09T08:22:59.735Z,99.99
2023-01-09T08:24:52.701Z,99.99
2023-01-09T08:25:52.522Z,99.99
2023-01-09T08:27:45.381Z,99.99
2023-01-09T08:28:45.314Z,99.99
2023-01-09T08:30:38.170Z,99.99
2023-01-09T08:31:38.157Z,99.99
2023-01-09T08:33:30.950Z,99.99
2023-01-09T08:34:30.915Z,99.99
2023-01-09T08:36:23.808Z,99.99
2023-01-09T08:37:23.685Z,99.99
2023-01-09T08:39:16.537Z,99.99
2023-01-09T08:40:16.470Z,99.99
2023-01-09T08:42:09.324Z,99.99
2023-01-09T08:43:09.251Z,99.99
2023-01-09T08:45:02.109Z,99.99
2023-01-09T08:46:02.127Z,99.99
2023-01-09T08:47:54.890Z,99.99
2023-01-09T08:48:54.823Z,99.99
2023-01-09T08:50:47.686Z,99.99
2023-01-09T08:51:47.612Z,99.99
2023-01-09T08:53:40.473Z,99.99
2023-01-09T08:54:40.405Z,99.99
2023-01-09T08:56:33.254Z,99.99
2023-01-09T08:57:33.189Z,99.99
2023-01-09T08:59:26.067Z,99.99
2023-01-09T09:00:26.054Z,99.99
2023-01-09T09:02:19.419Z,99.99
2023-01-09T09:03:19.165Z,99.99
2023-01-09T09:05:11.821Z,99.99
2023-01-09T09:06:11.749Z,99.99
2023-01-09T09:08:04.611Z,99.99
2023-01-09T09:09:04.547Z,99.99
2023-01-09T09:10:57.427Z,99.99
2023-01-09T09:11:57.326Z,99.99
2023-01-09T09:13:50.184Z,99.99
2023-01-09T09:14:50.111Z,99.99
2023-01-09T09:16:42.960Z,99.99
2023-01-09T09:17:42.893Z,99.99
2023-01-09T09:19:35.758Z,99.99
2023-01-09T09:20:35.685Z,99.99
2023-01-09T09:22:28.539Z,99.99
2023-01-09T09:23:28.469Z,99.99
2023-01-09T09:25:21.377Z,99.99
2023-01-09T09:26:21.254Z,99.99
2023-01-09T09:28:14.114Z,99.99
2023-01-09T09:29:14.045Z,99.99
2023-01-09T09:31:06.936Z,99.99
2023-01-09T09:32:06.834Z,99.99
2023-01-09T09:33:59.695Z,99.99
2023-01-09T09:34:59.619Z,99.99
2023-01-09T09:36:52.528Z,99.99
2023-01-09T09:37:52.406Z,99.99
2023-01-09T09:39:45.269Z,99.94
2023-01-09T09:40:45.258Z,99.99
2023-01-09T09:42:38.046Z,99.55
2023-01-09T09:43:37.982Z,99.94
2023-01-09T09:45:30.833Z,99.99
2023-01-09T09:46:30.790Z,99.99
2023-01-09T09:48:23.628Z,99.55
2023-01-09T09:49:23.566Z,99.99
2023-01-09T09:51:16.418Z,99.94
2023-01-09T09:52:16.357Z,99.75
2023-01-09T09:54:09.227Z,99.99
2023-01-09T09:55:09.140Z,99.84
2023-01-09T09:57:01.997Z,99.99
2023-01-09T09:58:01.926Z,99.94
2023-01-09T09:59:54.781Z,99.65
2023-01-09T10:00:54.725Z,99.94
2023-01-09T10:02:47.764Z,99.99
2023-01-09T10:03:47.546Z,99.84
2023-01-09T10:05:40.361Z,99.46
2023-01-09T10:06:40.298Z,99.99
2023-01-09T10:08:33.154Z,99.75
2023-01-09T10:09:33.085Z,99.75
2023-01-09T10:11:25.940Z,99.55
2023-01-09T10:12:25.882Z,99.99
2023-01-09T10:14:24.048Z,99.99
2023-01-09T10:15:18.851Z,99.99
2023-01-09T10:17:11.721Z,99.84
2023-01-09T10:18:11.649Z,99.99
2023-01-09T10:20:04.497Z,99.99
2023-01-09T10:21:04.430Z,99.99
2023-01-09T10:22:57.879Z,99.99
2023-01-09T10:23:57.416Z,99.99
2023-01-09T10:25:50.266Z,99.99
2023-01-09T10:26:50.197Z,99.99
2023-01-09T10:28:43.071Z,99.99
2023-01-09T10:29:42.989Z,99.94
2023-01-09T10:31:36.571Z,99.99
2023-01-09T10:32:35.975Z,99.99
2023-01-09T10:34:28.831Z,99.99
2023-01-09T10:35:36.069Z,99.99
2023-01-09T10:37:21.611Z,99.94
2023-01-09T10:38:21.556Z,99.99
2023-01-09T10:40:14.417Z,99.99
2023-01-09T10:41:14.344Z,99.99
2023-01-09T10:43:07.216Z,99.65
2023-01-09T10:44:07.159Z,99.84
2023-01-09T10:45:59.983Z,99.99
2023-01-09T10:46:59.976Z,99.94
2023-01-09T10:48:52.771Z,99.99
2023-01-09T10:49:52.709Z,99.99
2023-01-09T10:51:45.561Z,99.99
2023-01-09T10:52:45.501Z,99.94
2023-01-09T10:54:38.354Z,99.94
2023-01-09T10:55:38.292Z,99.94
2023-01-09T10:57:31.139Z,99.94
2023-01-09T10:58:31.072Z,99.75
2023-01-09T11:00:24.132Z,99.60
2023-01-09T11:01:23.859Z,99.99
2023-01-09T11:03:16.782Z,99.41
2023-01-09T11:04:16.655Z,99.37
2023-01-09T11:06:09.512Z,99.65
2023-01-09T11:07:09.444Z,99.99
2023-01-09T11:09:02.300Z,99.22
2023-01-09T11:10:02.244Z,99.41
2023-01-09T11:11:55.089Z,99.51
2023-01-09T11:12:55.027Z,99.13
2023-01-09T11:14:47.886Z,99.32
2023-01-09T11:15:47.895Z,99.41
2023-01-09T11:17:41.259Z,98.75
2023-01-09T11:18:40.828Z,98.85
2023-01-09T11:20:33.654Z,99.22
2023-01-09T11:21:33.584Z,99.13
2023-01-09T11:23:27.939Z,99.04
2023-01-09T11:24:27.878Z,99.41
2023-01-09T11:26:20.719Z,99.41
2023-01-09T11:27:20.665Z,99.41
2023-01-09T11:29:13.528Z,98.94
2023-01-09T11:30:13.446Z,99.41
2023-01-09T11:32:06.320Z,98.56
2023-01-09T11:33:06.236Z,98.56
2023-01-09T11:34:59.093Z,98.46
2023-01-09T11:35:59.029Z,98.46
2023-01-09T11:37:51.882Z,99.04
2023-01-09T11:38:51.809Z,99.22
2023-01-09T11:40:44.667Z,98.94
2023-01-09T11:41:44.600Z,99.51
2023-01-09T11:43:37.467Z,98.94
2023-01-09T11:44:37.394Z,99.13
2023-01-09T11:46:30.276Z,99.41
2023-01-09T11:47:30.188Z,99.22
2023-01-09T11:49:23.034Z,99.13
2023-01-09T11:50:22.979Z,99.22
2023-01-09T11:52:15.829Z,99.89
2023-01-09T11:53:15.755Z,99.60
2023-01-09T11:55:08.627Z,98.94
2023-01-09T11:56:08.549Z,99.51
2023-01-09T11:58:01.404Z,99.70
2023-01-09T11:59:01.346Z,99.22
2023-01-09T12:00:54.199Z,99.13
2023-01-09T12:01:54.184Z,99.41
2023-01-09T12:03:46.996Z,99.51
2023-01-09T12:04:47.036Z,99.04
2023-01-09T12:06:39.770Z,98.94
2023-01-09T12:07:39.711Z,99.51
2023-01-09T12:09:32.559Z,99.70
2023-01-09T12:10:32.495Z,98.94
2023-01-09T12:12:25.358Z,99.32
2023-01-09T12:13:25.284Z,99.22
2023-01-09T12:15:18.153Z,99.13
2023-01-09T12:16:18.207Z,98.94
2023-01-09T12:18:10.948Z,98.85
2023-01-09T12:19:10.885Z,99.13
2023-01-09T12:21:03.725Z,99.04
2023-01-09T12:22:03.661Z,98.85
2023-01-09T12:23:56.523Z,98.94
2023-01-09T12:24:56.446Z,98.94
2023-01-09T12:26:49.307Z,99.22
2023-01-09T12:27:49.245Z,98.65
2023-01-09T12:29:42.685Z,98.56
2023-01-09T12:30:42.220Z,98.65
2023-01-09T12:32:35.081Z,98.56
2023-01-09T12:33:35.018Z,98.46
2023-01-09T12:35:41.920Z,98.65
2023-01-09T12:36:27.802Z,98.46
2023-01-09T12:38:20.655Z,98.85
2023-01-09T12:39:20.590Z,99.22
2023-01-09T12:41:13.451Z,98.56
2023-01-09T12:42:13.377Z,99.13
2023-01-09T12:44:06.235Z,98.94
2023-01-09T12:45:06.165Z,99.41
2023-01-09T12:46:59.023Z,99.41
2023-01-09T12:47:58.954Z,99.22
2023-01-09T12:49:51.884Z,99.51
2023-01-09T12:50:51.760Z,99.51
2023-01-09T12:52:44.602Z,98.94
2023-01-09T12:53:44.523Z,98.94
2023-01-09T12:55:37.390Z,99.60
2023-01-09T12:56:37.395Z,99.60
2023-01-09T12:58:30.176Z,99.99
2023-01-09T12:59:30.277Z,99.99
2023-01-09T13:01:23.115Z,99.70
2023-01-09T13:02:22.946Z,99.99
2023-01-09T13:04:15.763Z,99.99
2023-01-09T13:05:15.709Z,99.94
2023-01-09T13:07:08.555Z,99.99
2023-01-09T13:08:08.570Z,99.99
2023-01-09T13:10:01.337Z,99.99
2023-01-09T13:11:08.549Z,99.99
2023-01-09T13:12:54.139Z,99.99
2023-01-09T13:13:54.061Z,99.99
2023-01-09T13:15:46.922Z,99.99
2023-01-09T13:16:47.013Z,99.99
2023-01-09T13:18:39.703Z,99.99
2023-01-09T13:19:39.632Z,99.99
2023-01-09T13:21:32.501Z,99.99
2023-01-09T13:22:32.441Z,99.99
2023-01-09T13:24:25.283Z,99.99
2023-01-09T13:25:25.214Z,99.99
2023-01-09T13:27:18.075Z,99.99
2023-01-09T13:28:17.999Z,99.99
2023-01-09T13:30:10.855Z,99.99
2023-01-09T13:31:10.786Z,99.99
2023-01-09T13:33:03.655Z,99.99
2023-01-09T13:34:04.565Z,99.99
2023-01-09T13:35:56.445Z,99.99
2023-01-09T13:36:56.422Z,99.99
2023-01-09T13:38:49.280Z,99.99
2023-01-09T13:39:49.194Z,99.99
2023-01-09T13:41:44.280Z,99.99
2023-01-09T13:42:41.981Z,99.99
2023-01-09T13:44:34.813Z,99.99
2023-01-09T13:45:34.770Z,99.99
2023-01-09T13:47:27.609Z,99.99
2023-01-09T13:48:27.540Z,99.99
2023-01-09T13:50:20.392Z,99.99
2023-01-09T13:51:20.337Z,99.99
2023-01-09T13:53:13.188Z,99.99
2023-01-09T13:54:13.204Z,99.99
2023-01-09T13:56:05.974Z,99.99
2023-01-09T13:57:05.905Z,99.99
2023-01-09T13:58:58.765Z,99.99
2023-01-09T13:59:58.702Z,99.99
2023-01-09T14:01:52.194Z,99.99
2023-01-09T14:02:51.876Z,99.99
2023-01-09T14:04:44.520Z,99.99
2023-01-09T14:05:44.471Z,99.99
2023-01-09T14:07:37.326Z,99.99
2023-01-09T14:09:50.184Z,99.99
2023-01-09T14:10:50.088Z,99.99
2023-01-09T14:12:42.951Z,99.99
2023-01-09T14:13:42.865Z,99.99
2023-01-09T14:15:35.728Z,99.99
2023-01-09T14:16:35.706Z,99.99
2023-01-09T14:18:28.514Z,99.99
2023-01-09T14:19:28.468Z,99.99
2023-01-09T14:21:22.273Z,99.99
2023-01-09T14:24:14.099Z,99.99
2023-01-09T14:25:14.038Z,99.99
2023-01-09T14:27:06.884Z,99.99
2023-01-09T14:28:06.822Z,99.99
2023-01-09T14:29:59.699Z,99.99
2023-01-09T14:30:59.743Z,99.99
2023-01-09T14:32:52.465Z,99.99
2023-01-09T14:33:52.580Z,99.99
2023-01-09T14:35:45.250Z,99.99
2023-01-09T14:36:45.197Z,99.99
2023-01-09T14:38:38.046Z,99.99
2023-01-09T14:39:37.976Z,99.99
2023-01-09T14:41:30.847Z,99.99
2023-01-09T14:42:30.767Z,99.99
2023-01-09T14:44:23.624Z,99.99
2023-01-09T14:45:23.562Z,99.99
2023-01-09T14:47:16.411Z,99.99
2023-01-09T14:48:16.343Z,99.99
2023-01-09T14:50:09.256Z,99.99
2023-01-09T14:51:09.137Z,99.99
2023-01-09T14:53:01.990Z,99.99
2023-01-09T14:54:01.931Z,99.99
2023-01-09T14:55:54.797Z,99.99
2023-01-09T14:56:54.725Z,99.99
2023-01-09T14:58:47.575Z,99.99
2023-01-09T14:59:47.517Z,99.99
2023-01-09T15:01:40.368Z,99.99
2023-01-09T15:02:40.319Z,99.99
2023-01-09T15:04:33.159Z,99.99
2023-01-09T15:05:33.085Z,99.99
2023-01-09T15:07:25.961Z,99.99
2023-01-09T15:08:25.884Z,99.99
2023-01-09T15:10:18.733Z,99.99
2023-01-09T15:11:18.663Z,99.99
2023-01-09T15:13:11.534Z,99.99
2023-01-09T15:14:11.467Z,99.99
2023-01-09T15:16:04.361Z,99.99
2023-01-09T15:17:04.243Z,99.99
2023-01-09T15:18:57.096Z,99.99
2023-01-09T15:19:57.095Z,99.99
2023-01-09T15:21:49.891Z,99.99
2023-01-09T15:22:51.201Z,99.99
2023-01-09T15:24:42.686Z,99.99
2023-01-09T15:25:42.606Z,99.99
2023-01-09T15:27:35.469Z,99.99
2023-01-09T15:28:35.405Z,99.99
2023-01-09T15:30:28.256Z,99.99
2023-01-09T15:31:28.237Z,99.99
2023-01-09T15:33:21.040Z,99.99
2023-01-09T15:34:20.973Z,99.99
2023-01-09T15:36:13.871Z,99.99
2023-01-09T15:37:13.792Z,99.99
2023-01-09T15:39:06.661Z,99.99
2023-01-09T15:40:06.598Z,99.99
2023-01-09T15:41:59.463Z,99.99
2023-01-09T15:42:59.404Z,99.99
2023-01-09T15:44:52.255Z,99.99
2023-01-09T15:45:52.241Z,99.99
2023-01-09T15:47:45.040Z,99.99
2023-01-09T15:48:45.010Z,99.99
2023-01-09T15:50:37.835Z,99.99
2023-01-09T15:51:37.767Z,99.99
2023-01-09T15:53:31.207Z,99.99
2023-01-09T15:54:30.771Z,99.99
2023-01-09T15:56:23.602Z,99.99
2023-01-09T15:57:23.530Z,99.99
2023-01-09T15:59:16.381Z,99.99
2023-01-09T16:00:16.340Z,99.99
2023-01-09T16:02:08.206Z,99.99
2023-01-09T16:03:08.110Z,99.99
2023-01-09T16:05:00.972Z,99.99
2023-01-09T16:06:00.896Z,99.99
2023-01-09T16:07:53.754Z,99.99
2023-01-09T16:08:53.747Z,99.99
2023-01-09T16:10:46.533Z,99.99
2023-01-09T16:11:46.480Z,99.99
2023-01-09T16:13:39.317Z,99.99
2023-01-09T16:14:39.257Z,99.99
2023-01-09T16:16:32.738Z,99.99
2023-01-09T16:17:32.235Z,99.99
2023-01-09T16:19:25.092Z,99.99
2023-01-09T16:20:25.020Z,99.99
2023-01-09T16:22:17.880Z,99.99
2023-01-09T16:23:17.811Z,99.99
2023-01-09T16:25:10.670Z,99.99
2023-01-09T16:26:10.604Z,99.99
2023-01-09T16:28:03.463Z,99.99
2023-01-09T16:29:03.402Z,99.99
2023-01-09T16:30:56.259Z,99.99
2023-01-09T16:31:56.444Z,99.99
2023-01-09T16:33:49.031Z,99.99
2023-01-09T16:34:48.971Z,99.99
2023-01-09T16:36:41.900Z,99.99
2023-01-09T16:37:41.752Z,99.99
2023-01-09T16:39:34.610Z,99.99
2023-01-09T16:40:34.541Z,99.99
2023-01-09T16:42:27.406Z,99.99
2023-01-09T16:43:27.334Z,99.99
2023-01-09T16:45:20.192Z,99.99
2023-01-09T16:46:20.170Z,99.99
2023-01-09T16:48:12.990Z,99.99
2023-01-09T16:49:12.912Z,99.99
2023-01-09T16:51:05.761Z,99.99
2023-01-09T16:52:05.703Z,99.99
2023-01-09T16:53:58.547Z,99.99
2023-01-09T16:54:58.479Z,99.99
2023-01-09T16:56:51.343Z,99.99
2023-01-09T16:57:51.269Z,99.99
2023-01-09T16:59:44.206Z,99.99
2023-01-09T17:00:44.081Z,99.99
2023-01-09T17:02:37.032Z,99.99
2023-01-09T17:03:36.882Z,99.99
2023-01-09T17:05:29.710Z,99.99
2023-01-09T17:06:29.634Z,99.99
2023-01-09T17:08:22.498Z,99.99
2023-01-09T17:09:23.144Z,99.99
2023-01-09T17:11:15.287Z,99.99
2023-01-09T17:12:15.215Z,99.99
2023-01-09T17:14:08.072Z,99.99
2023-01-09T17:15:08.016Z,99.99
2023-01-09T17:17:01.726Z,99.99
2023-01-09T17:18:00.790Z,99.99
2023-01-09T17:19:53.653Z,99.99
2023-01-09T17:20:53.587Z,99.99
2023-01-09T17:22:46.461Z,99.99
2023-01-09T17:23:46.367Z,99.99
2023-01-09T17:25:42.255Z,99.99
2023-01-09T17:26:41.745Z,99.99
2023-01-09T17:28:32.016Z,99.99
2023-01-09T17:29:31.956Z,99.99
2023-01-09T17:31:24.858Z,99.99
2023-01-09T17:32:24.740Z,99.99
2023-01-09T17:34:17.600Z,99.99
2023-01-09T17:35:17.527Z,99.99
2023-01-09T17:37:10.541Z,99.99
2023-01-09T17:38:10.314Z,99.99
2023-01-09T17:40:03.167Z,99.99
2023-01-09T17:41:03.097Z,99.99
2023-01-09T17:42:55.954Z,99.99
2023-01-09T17:43:55.894Z,99.99
2023-01-09T17:45:48.781Z,99.99
2023-01-09T17:46:48.674Z,99.99
2023-01-09T17:48:41.527Z,99.99
2023-01-09T17:49:41.463Z,99.99
2023-01-09T17:51:34.328Z,99.99
2023-01-09T17:52:34.262Z,99.99
2023-01-09T17:54:27.110Z,99.99
2023-01-09T17:55:27.051Z,99.99
2023-01-09T17:57:19.901Z,99.99
2023-01-09T17:58:19.836Z,99.99
2023-01-09T18:00:12.686Z,99.99
2023-01-09T18:01:12.656Z,99.99
2023-01-09T18:03:05.481Z,99.99
2023-01-09T18:04:05.405Z,99.99
2023-01-09T18:05:58.851Z,99.99
2023-01-09T18:06:58.401Z,99.99
2023-01-09T18:08:51.260Z,99.99
2023-01-09T18:09:51.175Z,99.99
2023-01-09T18:11:44.040Z,99.99
2023-01-09T18:12:44.069Z,99.99
2023-01-09T18:14:36.829Z,99.99
2023-01-09T18:15:36.770Z,99.99
2023-01-09T18:17:29.633Z,99.99
2023-01-09T18:18:29.558Z,99.99
2023-01-09T18:20:22.417Z,99.99
2023-01-09T18:21:22.364Z,99.99
2023-01-09T18:23:15.213Z,99.99
2023-01-09T18:24:15.136Z,99.99
2023-01-09T18:26:08.029Z,99.99
2023-01-09T18:27:07.926Z,99.99
2023-01-09T18:29:01.366Z,99.99
2023-01-09T18:30:02.529Z,99.99
2023-01-09T18:31:53.853Z,99.99
2023-01-09T18:32:53.696Z,99.99
2023-01-09T18:34:46.548Z,99.99